createdAt,value
2023-03-26T00:01:38.208Z,5.59
2023-03-26T00:04:06.783Z,5.19
2023-03-26T00:06:37.508Z,3.89
2023-03-26T00:09:05.334Z,3.24
2023-03-26T00:11:31.819Z,3.29
2023-03-26T00:13:59.164Z,2.88
2023-03-26T00:16:31.217Z,2.84
2023-03-26T00:18:58.727Z,2.74
2023-03-26T00:21:28.018Z,2.89
2023-03-26T00:23:59.931Z,2.97
2023-03-26T00:26:27.315Z,2.91
2023-03-26T00:28:54.644Z,2.78
2023-03-26T00:31:21.443Z,3.04
2023-03-26T00:33:48.023Z,3.02
2023-03-26T00:36:17.371Z,3.24
2023-03-26T00:38:44.880Z,3.04
2023-03-26T00:41:22.937Z,4.45
2023-03-26T00:43:51.372Z,6.14
2023-03-26T00:46:18.151Z,5.70
2023-03-26T00:48:46.062Z,4.62
2023-03-26T00:51:15.497Z,3.77
2023-03-26T00:53:43.344Z,3.59
2023-03-26T00:56:10.035Z,3.37
2023-03-26T00:58:37.204Z,3.36
2023-03-26T01:01:06.475Z,3.36
2023-03-26T01:03:34.861Z,3.54
2023-03-26T01:06:04.615Z,3.62
2023-03-26T01:08:48.392Z,3.20
2023-03-26T01:11:21.126Z,3.69
2023-03-26T01:13:50.213Z,3.40
2023-03-26T01:16:26.987Z,3.43
2023-03-26T01:18:53.896Z,3.64
2023-03-26T01:21:29.948Z,3.53
2023-03-26T01:23:57.471Z,3.32
2023-03-26T01:26:37.752Z,3.35
2023-03-26T01:29:10.192Z,3.85
2023-03-26T01:31:51.276Z,3.65
2023-03-26T01:34:30.717Z,3.86
2023-03-26T01:37:04.912Z,4.06
2023-03-26T01:39:40.661Z,4.12
2023-03-26T01:42:14.402Z,4.41
2023-03-26T01:44:46.756Z,4.58
2023-03-26T01:47:14.638Z,4.18
2023-03-26T01:49:41.138Z,4.87
2023-03-26T01:52:17.824Z,4.80
2023-03-26T01:54:46.724Z,4.89
2023-03-26T01:57:21.055Z,5.03
2023-03-26T01:59:47.567Z,5.13
2023-03-26T02:02:18.415Z,5.45
2023-03-26T02:04:53.380Z,5.72
2023-03-26T02:07:34.550Z,5.94
2023-03-26T02:10:08.012Z,6.43
2023-03-26T02:12:35.540Z,6.25
2023-03-26T02:15:02.414Z,6.57
2023-03-26T02:17:30.269Z,6.57
2023-03-26T02:19:57.064Z,7.20
2023-03-26T02:22:29.747Z,7.44
2023-03-26T02:24:56.259Z,8.06
2023-03-26T02:27:23.150Z,8.04
2023-03-26T02:29:50.358Z,8.15
2023-03-26T02:32:19.307Z,8.18
2023-03-26T02:34:47.328Z,8.51
2023-03-26T02:37:13.798Z,8.04
2023-03-26T02:39:40.326Z,8.30
2023-03-26T02:42:06.816Z,8.05
2023-03-26T02:44:33.345Z,8.11
2023-03-26T02:47:00.357Z,8.58
2023-03-26T02:49:27.249Z,8.82
2023-03-26T02:51:56.427Z,8.88
2023-03-26T02:54:23.239Z,9.20
2023-03-26T02:56:49.892Z,9.45
2023-03-26T02:59:16.519Z,9.23
2023-03-26T03:01:43.157Z,9.68
2023-03-26T03:04:10.526Z,10.46
2023-03-26T03:06:41.025Z,10.14
2023-03-26T03:09:10.938Z,10.42
2023-03-26T03:11:38.422Z,10.87
2023-03-26T03:14:05.338Z,10.54
2023-03-26T03:16:32.721Z,11.09
2023-03-26T03:18:59.444Z,11.31
2023-03-26T03:21:27.910Z,11.83
2023-03-26T03:23:54.989Z,11.58
2023-03-26T03:26:23.476Z,11.69
2023-03-26T03:28:50.084Z,12.28
2023-03-26T03:31:17.393Z,12.20
2023-03-26T03:33:46.232Z,12.34
2023-03-26T03:36:20.875Z,12.06
2023-03-26T03:38:48.505Z,12.78
2023-03-26T03:41:15.042Z,13.07
2023-03-26T03:43:41.778Z,13.41
2023-03-26T03:46:08.348Z,12.96
2023-03-26T03:48:38.091Z,13.41
2023-03-26T03:51:06.113Z,13.55
2023-03-26T03:53:37.112Z,13.13
2023-03-26T03:56:04.554Z,13.13
2023-03-26T03:58:31.138Z,12.85
2023-03-26T04:01:00.915Z,13.18
2023-03-26T04:03:33.327Z,13.24
2023-03-26T04:06:01.764Z,13.48
2023-03-26T04:08:28.325Z,13.36
2023-03-26T04:10:54.818Z,13.34
2023-03-26T04:13:22.100Z,12.89
2023-03-26T04:15:49.018Z,13.10
2023-03-26T04:18:15.612Z,12.36
2023-03-26T04:20:47.346Z,12.66
2023-03-26T04:23:14.716Z,12.43
2023-03-26T04:25:43.784Z,12.22
2023-03-26T04:28:19.886Z,12.27
2023-03-26T04:30:46.415Z,11.95
2023-03-26T04:33:15.452Z,12.23
2023-03-26T04:35:44.422Z,11.71
2023-03-26T04:38:11.922Z,11.83
2023-03-26T04:40:39.086Z,11.32
2023-03-26T04:43:06.444Z,10.96
2023-03-26T04:45:32.901Z,11.22
2023-03-26T04:47:59.771Z,11.66
2023-03-26T04:50:27.189Z,10.97
2023-03-26T04:52:56.653Z,10.69
2023-03-26T04:55:23.127Z,11.35
2023-03-26T04:57:54.164Z,10.90
2023-03-26T05:00:21.387Z,11.10
2023-03-26T05:02:51.084Z,10.84
2023-03-26T05:05:18.200Z,10.57
2023-03-26T05:07:45.091Z,10.86
2023-03-26T05:10:13.568Z,11.34
2023-03-26T05:12:40.882Z,11.15
2023-03-26T05:15:08.504Z,11.11
2023-03-26T05:17:35.194Z,11.64
2023-03-26T05:20:01.760Z,11.44
2023-03-26T05:22:28.230Z,11.39
2023-03-26T05:24:54.712Z,11.60
2023-03-26T05:27:21.212Z,11.52
2023-03-26T05:29:47.710Z,11.64
2023-03-26T05:32:14.346Z,11.53
2023-03-26T05:34:41.361Z,12.01
2023-03-26T05:37:09.270Z,11.64
2023-03-26T05:39:36.272Z,11.83
2023-03-26T05:42:03.522Z,12.51
2023-03-26T05:44:30.388Z,13.05
2023-03-26T05:46:56.820Z,12.51
2023-03-26T05:49:23.458Z,13.34
2023-03-26T05:51:50.948Z,14.12
2023-03-26T05:54:17.571Z,14.94
2023-03-26T05:56:44.083Z,16.45
2023-03-26T05:59:10.953Z,16.16
2023-03-26T06:01:37.397Z,17.15
2023-03-26T06:04:04.251Z,18.41
2023-03-26T06:06:32.323Z,18.93
2023-03-26T06:09:01.594Z,19.90
2023-03-26T06:11:30.184Z,19.50
2023-03-26T06:13:56.690Z,19.44
2023-03-26T06:16:27.103Z,19.96
2023-03-26T06:18:56.660Z,18.74
2023-03-26T06:21:24.806Z,19.51
2023-03-26T06:23:51.769Z,17.90
2023-03-26T06:26:18.502Z,16.44
2023-03-26T06:28:45.038Z,19.18
2023-03-26T06:31:12.094Z,19.05
2023-03-26T06:33:38.736Z,19.42
2023-03-26T06:36:06.317Z,15.55
2023-03-26T06:38:32.869Z,18.37
2023-03-26T06:41:03.551Z,18.22
2023-03-26T06:43:33.592Z,16.91
2023-03-26T06:46:01.499Z,16.30
2023-03-26T06:48:28.162Z,14.10
2023-03-26T06:50:55.110Z,13.13
2023-03-26T06:53:22.283Z,12.17
2023-03-26T06:55:48.861Z,11.22
2023-03-26T06:58:16.719Z,11.35
2023-03-26T07:00:43.502Z,11.29
2023-03-26T07:03:11.571Z,10.54
2023-03-26T07:05:40.632Z,9.84
2023-03-26T07:08:07.154Z,8.07
2023-03-26T07:10:33.632Z,7.33
2023-03-26T07:13:00.279Z,6.29
2023-03-26T07:15:28.464Z,6.40
2023-03-26T07:17:55.090Z,6.61
2023-03-26T07:20:21.900Z,12.63
2023-03-26T07:22:48.972Z,12.09
2023-03-26T07:25:16.025Z,8.50
2023-03-26T07:27:54.749Z,8.40
2023-03-26T07:30:50.725Z,8.49
2023-03-26T07:33:17.173Z,6.87
2023-03-26T07:35:49.107Z,6.50
2023-03-26T07:38:34.804Z,6.72
2023-03-26T07:41:01.557Z,6.61
2023-03-26T07:43:40.517Z,6.52
2023-03-26T07:46:11.242Z,6.75
2023-03-26T07:48:40.811Z,6.77
2023-03-26T07:51:07.671Z,7.32
2023-03-26T07:53:34.292Z,7.44
2023-03-26T07:56:03.710Z,7.41
2023-03-26T07:58:41.449Z,7.64
2023-03-26T08:01:12.963Z,7.65
2023-03-26T08:03:51.848Z,8.83
2023-03-26T08:06:18.493Z,14.40
2023-03-26T08:08:47.855Z,9.21
2023-03-26T08:11:23.565Z,6.49
2023-03-26T08:13:57.559Z,5.33
2023-03-26T08:16:30.588Z,4.39
2023-03-26T08:19:16.679Z,5.19
2023-03-26T08:21:49.311Z,4.55
2023-03-26T08:24:43.177Z,4.95
2023-03-26T08:27:09.712Z,4.93
2023-03-26T08:29:54.789Z,4.89
2023-03-26T08:32:21.950Z,4.88
2023-03-26T08:34:49.779Z,5.05
2023-03-26T08:37:16.239Z,4.83
2023-03-26T08:39:42.866Z,4.02
2023-03-26T08:42:12.955Z,3.80
2023-03-26T08:44:40.777Z,4.43
2023-03-26T08:47:10.227Z,4.27
2023-03-26T08:49:55.941Z,4.49
2023-03-26T08:52:25.654Z,4.32
2023-03-26T08:55:10.786Z,4.50
2023-03-26T08:57:59.353Z,4.86
2023-03-26T09:00:52.536Z,4.72
2023-03-26T09:03:39.532Z,4.79
2023-03-26T09:06:15.422Z,5.30
2023-03-26T09:08:59.367Z,4.94
2023-03-26T09:11:28.879Z,5.25
2023-03-26T09:14:27.972Z,5.25
2023-03-26T09:16:54.498Z,5.38
2023-03-26T09:19:35.656Z,5.33
2023-03-26T09:22:29.692Z,5.00
2023-03-26T09:25:16.517Z,5.84
2023-03-26T09:28:05.547Z,5.66
2023-03-26T09:30:51.113Z,5.76
2023-03-26T09:33:20.237Z,6.21
2023-03-26T09:35:52.026Z,5.65
2023-03-26T09:38:38.948Z,5.18
2023-03-26T09:41:14.295Z,5.75
2023-03-26T09:43:49.686Z,5.86
2023-03-26T09:46:17.086Z,5.94
2023-03-26T09:49:01.993Z,5.73
2023-03-26T09:51:47.284Z,5.37
2023-03-26T09:54:18.045Z,6.10
2023-03-26T09:57:03.471Z,5.50
2023-03-26T09:59:39.310Z,6.33
2023-03-26T10:02:14.951Z,5.34
2023-03-26T10:04:59.522Z,5.78
2023-03-26T10:07:32.248Z,5.53
2023-03-26T10:10:04.811Z,5.99
2023-03-26T10:12:37.258Z,5.71
2023-03-26T10:15:20.468Z,5.51
2023-03-26T10:18:27.638Z,5.52
2023-03-26T10:21:23.805Z,5.00
2023-03-26T10:24:09.410Z,5.13
2023-03-26T10:26:38.965Z,5.13
2023-03-26T10:29:28.873Z,5.64
2023-03-26T10:32:06.041Z,5.84
2023-03-26T10:34:38.724Z,5.21
2023-03-26T10:37:12.106Z,5.36
2023-03-26T10:39:57.087Z,5.23
2023-03-26T10:42:53.118Z,5.52
2023-03-26T10:45:19.644Z,5.98
2023-03-26T10:47:55.154Z,5.36
2023-03-26T10:50:24.488Z,5.20
2023-03-26T10:52:54.076Z,5.83
2023-03-26T10:55:32.794Z,5.06
2023-03-26T10:58:03.777Z,5.39
2023-03-26T11:00:31.172Z,5.32
2023-03-26T11:03:11.692Z,4.80
2023-03-26T11:05:52.395Z,5.01
2023-03-26T11:08:18.972Z,5.10
2023-03-26T11:10:53.561Z,5.31
2023-03-26T11:13:39.602Z,4.89
2023-03-26T11:16:13.764Z,5.60
2023-03-26T11:18:48.525Z,4.57
2023-03-26T11:21:27.907Z,4.48
2023-03-26T11:24:05.139Z,5.19
2023-03-26T11:26:52.830Z,4.60
2023-03-26T11:29:39.384Z,4.59
2023-03-26T11:32:10.966Z,4.53
2023-03-26T11:34:43.121Z,4.60
2023-03-26T11:37:17.652Z,5.13
2023-03-26T11:39:54.485Z,4.57
2023-03-26T11:42:24.013Z,4.60
2023-03-26T11:45:00.815Z,4.42
2023-03-26T11:47:44.683Z,4.19
2023-03-26T11:50:17.854Z,4.57
2023-03-26T11:52:45.387Z,4.55
2023-03-26T11:55:13.724Z,4.63
2023-03-26T11:57:45.559Z,4.84
2023-03-26T12:00:18.311Z,4.50
2023-03-26T12:02:46.405Z,4.41
2023-03-26T12:05:19.566Z,4.05
2023-03-26T12:07:52.405Z,3.94
2023-03-26T12:10:24.009Z,4.00
2023-03-26T12:12:53.813Z,4.18
2023-03-26T12:15:21.975Z,4.14
2023-03-26T12:17:55.953Z,3.91
2023-03-26T12:20:25.336Z,3.73
2023-03-26T12:22:53.261Z,3.51
2023-03-26T12:25:22.397Z,3.59
2023-03-26T12:27:50.530Z,3.98
2023-03-26T12:30:22.281Z,4.03
2023-03-26T12:32:53.412Z,4.27
2023-03-26T12:35:27.692Z,4.53
2023-03-26T12:37:55.848Z,3.90
2023-03-26T12:40:25.451Z,3.85
2023-03-26T12:44:46.701Z,4.06
2023-03-26T12:45:43.395Z,4.30
2023-03-26T12:48:13.082Z,3.93
2023-03-26T12:50:57.679Z,3.87
2023-03-26T12:53:45.196Z,4.10
2023-03-26T12:56:19.928Z,3.72
2023-03-26T12:58:59.228Z,3.30
2023-03-26T13:01:50.736Z,3.16
2023-03-26T13:04:55.038Z,3.22
2023-03-26T13:07:59.608Z,3.37
2023-03-26T13:10:35.126Z,3.55
2023-03-26T13:13:27.167Z,3.09
2023-03-26T13:16:07.810Z,3.67
2023-03-26T13:18:49.719Z,3.71
2023-03-26T13:21:35.359Z,3.79
2023-03-26T13:24:11.473Z,3.11
2023-03-26T13:26:53.244Z,3.61
2023-03-26T13:29:32.133Z,3.20
2023-03-26T13:32:15.976Z,2.95
2023-03-26T13:34:42.651Z,3.02
2023-03-26T13:37:16.050Z,2.85
2023-03-26T13:39:45.680Z,3.21
2023-03-26T13:42:33.696Z,3.32
2023-03-26T13:45:12.538Z,3.21
2023-03-26T13:47:45.027Z,2.86
2023-03-26T13:50:23.804Z,2.83
2023-03-26T13:52:55.340Z,2.99
2023-03-26T13:55:21.880Z,3.55
2023-03-26T13:58:34.613Z,3.18
2023-03-26T14:01:04.643Z,3.17
2023-03-26T14:03:40.235Z,2.90
2023-03-26T14:06:13.070Z,3.15
2023-03-26T14:08:44.428Z,2.96
2023-03-26T14:11:28.349Z,3.31
2023-03-26T14:14:04.001Z,3.01
2023-03-26T14:16:41.961Z,2.92
2023-03-26T14:19:26.755Z,3.30
2023-03-26T14:22:03.195Z,3.51
2023-03-26T14:24:43.133Z,3.00
2023-03-26T14:27:22.443Z,2.79
2023-03-26T14:30:07.308Z,2.85
2023-03-26T14:32:56.004Z,2.99
2023-03-26T14:35:55.055Z,2.88
2023-03-26T14:38:24.479Z,2.57
2023-03-26T14:41:14.701Z,3.11
2023-03-26T14:44:00.425Z,2.88
2023-03-26T14:46:39.815Z,3.34
2023-03-26T14:49:21.897Z,3.13
2023-03-26T14:52:10.298Z,3.33
2023-03-26T14:54:43.672Z,3.03
2023-03-26T14:57:28.875Z,2.84
2023-03-26T15:00:02.096Z,2.94
2023-03-26T15:02:47.364Z,2.95
2023-03-26T15:05:13.964Z,3.00
2023-03-26T15:07:41.265Z,3.14
2023-03-26T15:10:10.643Z,2.92
2023-03-26T15:12:48.517Z,2.85
2023-03-26T15:15:30.464Z,3.21
2023-03-26T15:17:57.106Z,3.02
2023-03-26T15:20:32.012Z,3.23
2023-03-26T15:23:17.048Z,3.14
2023-03-26T15:26:07.793Z,3.25
2023-03-26T15:28:46.580Z,3.27
2023-03-26T15:31:37.256Z,3.02
2023-03-26T15:34:23.821Z,2.90
2023-03-26T15:37:00.402Z,3.43
2023-03-26T15:39:27.728Z,3.24
2023-03-26T15:42:13.112Z,3.03
2023-03-26T15:44:54.345Z,3.27
2023-03-26T15:47:21.090Z,2.89
2023-03-26T15:49:55.348Z,3.27
2023-03-26T15:52:37.135Z,2.99
2023-03-26T15:55:27.711Z,3.21
2023-03-26T15:57:57.218Z,3.38
2023-03-26T16:00:26.600Z,3.17
2023-03-26T16:03:09.384Z,2.82
2023-03-26T16:05:46.545Z,2.73
2023-03-26T16:08:19.838Z,2.57
2023-03-26T16:10:56.127Z,2.64
2023-03-26T16:13:22.822Z,2.48
2023-03-26T16:15:55.998Z,2.33
2023-03-26T16:18:28.314Z,2.66
2023-03-26T16:21:04.394Z,2.78
2023-03-26T16:23:53.736Z,3.22
2023-03-26T16:26:45.507Z,3.35
2023-03-26T16:29:14.319Z,3.08
2023-03-26T16:31:59.840Z,2.82
2023-03-26T16:34:49.442Z,3.62
2023-03-26T16:37:36.821Z,3.74
2023-03-26T16:40:20.839Z,3.33
2023-03-26T16:42:48.067Z,2.77
2023-03-26T16:45:14.638Z,2.82
2023-03-26T16:47:58.944Z,2.11
2023-03-26T16:50:35.114Z,2.41
2023-03-26T16:53:22.742Z,2.29
2023-03-26T16:56:12.515Z,2.49
2023-03-26T16:58:56.363Z,2.79
2023-03-26T17:01:22.818Z,2.82
2023-03-26T17:04:17.245Z,2.50
2023-03-26T17:06:45.841Z,2.52
2023-03-26T17:09:31.596Z,2.39
2023-03-26T17:12:07.801Z,2.76
2023-03-26T17:14:34.399Z,2.68
2023-03-26T17:17:19.645Z,2.76
2023-03-26T17:20:09.501Z,2.25
2023-03-26T17:22:38.818Z,2.97
2023-03-26T17:25:23.918Z,3.34
2023-03-26T17:28:14.257Z,2.68
2023-03-26T17:30:59.687Z,3.28
2023-03-26T17:33:27.094Z,3.00
2023-03-26T17:36:12.725Z,2.86
2023-03-26T17:38:39.435Z,2.98
2023-03-26T17:41:08.098Z,2.99
2023-03-26T17:43:35.831Z,3.08
2023-03-26T17:46:17.705Z,2.81
2023-03-26T17:48:49.333Z,2.75
2023-03-26T17:51:31.881Z,2.90
2023-03-26T17:53:59.522Z,3.49
2023-03-26T17:56:29.918Z,3.20
2023-03-26T17:59:12.121Z,2.94
2023-03-26T18:01:41.611Z,3.56
2023-03-26T18:04:14.935Z,5.71
2023-03-26T18:06:56.608Z,4.61
2023-03-26T18:09:45.867Z,5.20
2023-03-26T18:12:33.457Z,6.92
2023-03-26T18:15:03.119Z,4.64
2023-03-26T18:17:38.457Z,3.63
2023-03-26T18:20:10.048Z,3.96
2023-03-26T18:22:36.641Z,4.44
2023-03-26T18:25:03.781Z,3.62
2023-03-26T18:27:36.862Z,5.29
2023-03-26T18:30:14.574Z,5.10
2023-03-26T18:32:51.092Z,5.94
2023-03-26T18:35:20.398Z,5.89
2023-03-26T18:37:49.831Z,7.99
2023-03-26T18:40:19.987Z,6.65
2023-03-26T18:42:46.489Z,7.37
2023-03-26T18:45:25.375Z,7.47
2023-03-26T18:47:53.789Z,6.74
2023-03-26T18:50:25.341Z,6.01
2023-03-26T18:52:52.588Z,4.29
2023-03-26T18:55:19.357Z,2.66
2023-03-26T18:57:50.480Z,3.89
2023-03-26T19:00:30.458Z,3.62
2023-03-26T19:03:08.183Z,4.35
2023-03-26T19:05:36.699Z,4.12
2023-03-26T19:08:05.406Z,3.79
2023-03-26T19:10:33.225Z,3.67
2023-03-26T19:13:04.196Z,3.42
2023-03-26T19:15:33.004Z,5.41
2023-03-26T19:18:07.148Z,5.89
2023-03-26T19:20:40.621Z,4.01
2023-03-26T19:23:08.779Z,3.66
2023-03-26T19:25:40.732Z,3.60
2023-03-26T19:28:14.867Z,3.15
2023-03-26T19:30:42.125Z,3.33
2023-03-26T19:33:14.749Z,3.43
2023-03-26T19:35:42.820Z,3.16
2023-03-26T19:38:29.874Z,3.88
2023-03-26T19:40:58.073Z,4.25
2023-03-26T19:43:25.647Z,2.98
2023-03-26T19:46:00.279Z,2.71
2023-03-26T19:48:45.264Z,3.04
2023-03-26T19:51:19.936Z,3.57
2023-03-26T19:53:53.860Z,3.57
2023-03-26T19:56:21.844Z,3.92
2023-03-26T19:58:50.194Z,3.64
2023-03-26T20:01:27.907Z,3.81
2023-03-26T20:03:57.727Z,3.53
2023-03-26T20:06:41.788Z,3.65
2023-03-26T20:09:10.978Z,3.57
2023-03-26T20:11:39.244Z,4.99
2023-03-26T20:14:16.690Z,4.58
2023-03-26T20:19:30.687Z,5.75
2023-03-26T20:21:57.474Z,4.01
2023-03-26T20:24:25.451Z,3.55
2023-03-26T20:26:52.142Z,3.26
2023-03-26T20:29:19.880Z,3.32
2023-03-26T20:31:48.524Z,3.10
2023-03-26T20:34:23.613Z,3.43
2023-03-26T20:36:55.285Z,3.91
2023-03-26T20:39:23.434Z,3.28
2023-03-26T20:41:51.306Z,2.88
2023-03-26T20:44:19.341Z,3.37
2023-03-26T20:46:46.682Z,2.70
2023-03-26T20:49:15.100Z,2.84
2023-03-26T20:51:42.055Z,2.47
2023-03-26T20:54:23.108Z,2.75
2023-03-26T20:56:50.350Z,2.41
2023-03-26T20:59:19.169Z,2.15
2023-03-26T21:01:47.500Z,2.83
2023-03-26T21:04:16.180Z,9.77
2023-03-26T21:06:43.013Z,6.99
2023-03-26T21:09:14.770Z,3.01
2023-03-26T21:12:00.413Z,2.10
2023-03-26T21:14:40.346Z,2.21
2023-03-26T21:17:13.387Z,2.40
2023-03-26T21:19:39.985Z,2.36
2023-03-26T21:22:19.882Z,2.75
2023-03-26T21:25:01.506Z,3.66
2023-03-26T21:27:28.038Z,3.83
2023-03-26T21:29:55.289Z,3.43
2023-03-26T21:32:22.696Z,3.38
2023-03-26T21:34:58.814Z,4.72
2023-03-26T21:37:26.892Z,3.66
2023-03-26T21:39:54.021Z,3.29
2023-03-26T21:42:20.666Z,3.06
2023-03-26T21:44:47.726Z,4.27
2023-03-26T21:47:14.899Z,2.86
2023-03-26T21:49:41.493Z,2.40
2023-03-26T21:52:13.442Z,2.51
2023-03-26T21:54:43.044Z,2.64
2023-03-26T21:57:09.769Z,2.60
2023-03-26T21:59:36.215Z,3.11
2023-03-26T22:02:10.471Z,2.67
2023-03-26T22:04:50.047Z,2.70
2023-03-26T22:07:23.460Z,2.91
2023-03-26T22:09:50.182Z,2.99
2023-03-26T22:12:16.930Z,2.75
2023-03-26T22:14:43.458Z,2.77
2023-03-26T22:17:09.908Z,2.79
2023-03-26T22:19:36.858Z,3.52
2023-03-26T22:22:03.573Z,3.31
2023-03-26T22:24:30.124Z,2.93
2023-03-26T22:26:56.749Z,3.18
2023-03-26T22:29:23.334Z,2.99
2023-03-26T22:31:49.823Z,2.96
2023-03-26T22:34:16.573Z,2.92
2023-03-26T22:36:43.167Z,3.02
2023-03-26T22:39:09.778Z,3.26
2023-03-26T22:41:37.168Z,3.38
2023-03-26T22:44:16.927Z,3.17
2023-03-26T22:46:48.921Z,3.41
2023-03-26T22:49:15.854Z,3.46
2023-03-26T22:51:42.370Z,3.04
2023-03-26T22:54:09.529Z,2.77
2023-03-26T22:56:36.538Z,2.56
2023-03-26T22:59:03.728Z,2.93
2023-03-26T23:01:30.408Z,2.84
2023-03-26T23:03:57.652Z,2.99
2023-03-26T23:06:24.161Z,3.31
2023-03-26T23:08:51.347Z,3.22
2023-03-26T23:11:19.266Z,3.05
2023-03-26T23:13:46.454Z,2.75
2023-03-26T23:16:14.166Z,2.52
2023-03-26T23:18:41.241Z,2.26
2023-03-26T23:21:13.232Z,2.11
2023-03-26T23:23:39.825Z,1.89
2023-03-26T23:26:06.959Z,1.69
2023-03-26T23:28:34.353Z,1.54
2023-03-26T23:31:02.294Z,1.54
2023-03-26T23:33:34.278Z,1.51
2023-03-26T23:36:04.206Z,1.24
2023-03-26T23:38:43.614Z,1.21
2023-03-26T23:41:15.257Z,1.49
2023-03-26T23:43:54.359Z,1.47
2023-03-26T23:46:23.782Z,1.41
2023-03-26T23:48:51.381Z,1.77
2023-03-26T23:51:20.098Z,1.72
2023-03-26T23:53:47.613Z,1.47
2023-03-26T23:56:14.123Z,1.66
2023-03-26T23:58:41.003Z,1.58
